Neptune Thelisis — 9HZV7 — position and weather

sailwx.info

Track history (hours):
 
Tides and Currents Weather Stations Pressure Air Temp Water Temp Dewpoint Dewpoint Depression Visibility Wind Speed Wind Dir Waves Ship Positions

Neptune Thelisis

Last reported at 2017-Oct-19 08:08 UTC. Time now 2017-Oct-19 09:30 UTC.
Position N 46°17' E 030°45'.

; draft 5.6 m.

Type: Ship. MMSI: 256049000.

Date/timePositionNaut miles runAvg speedWind from/ knotsBaromVisibWave heightAir tempDewpointWater temp
2017-Oct-19 08:08N 46°17' E 030°45'0 0.1
2017-Oct-19 07:53N 46°17' E 030°45'0 0.1
2017-Oct-19 07:30N 46°17' E 030°45'0 0.1
2017-Oct-19 06:57N 46°17' E 030°45'0 0.0
2017-Oct-19 06:24N 46°17' E 030°45'0 0.1
2017-Oct-19 05:58N 46°17' E 030°45'0 0.1
2017-Oct-19 05:30N 46°17' E 030°45'0 0.1
2017-Oct-19 05:00N 46°17' E 030°45'0 0.1
2017-Oct-19 04:30N 46°17' E 030°45'0 0.0
2017-Oct-19 03:59N 46°17' E 030°45'0 0.0
2017-Oct-19 03:30N 46°17' E 030°45'0 0.0
2017-Oct-19 02:59N 46°17' E 030°45'0 0.0
2017-Oct-19 02:30N 46°17' E 030°45'0 0.0
2017-Oct-19 02:00N 46°17' E 030°45'0 0.0
2017-Oct-19 01:27N 46°17' E 030°45'0 0.0
2017-Oct-19 01:00N 46°17' E 030°45'0 0.0
2017-Oct-19 00:30N 46°17' E 030°45'0 0.0
2017-Oct-19 00:00N 46°17' E 030°45'0 0.0
2017-Oct-18 23:30N 46°17' E 030°45'0 0.0
2017-Oct-18 23:00N 46°17' E 030°45'0 0.0
2017-Oct-18 22:13N 46°17' E 030°45'0 0.3
2017-Oct-18 21:43N 46°16' E 030°45'1912.3
2017-Oct-18 20:10N 46°04' E 031°06'315.7
2017-Oct-18 20:00N 46°02' E 031°05'815.8
2017-Oct-18 19:30N 45°54' E 031°02'815.8
2017-Oct-18 19:00N 45°47' E 030°59'12516.0
2017-Oct-18 11:13N 43°47' E 030°10'316.1
2017-Oct-18 11:00N 43°44' E 030°08'816.2
2017-Oct-18 10:30N 43°36' E 030°06'1115.9
2017-Oct-18 09:49N 43°25' E 030°02'4715.9
2017-Oct-18 06:52N 42°40' E 029°44'615.9
2017-Oct-18 06:30N 42°34' E 029°42'10614.7
2017-Oct-17 23:20N 40°55' E 028°56'619.0
2017-Oct-17 23:00N 40°51' E 028°49'30211.1
2017-Oct-16 19:47N 37°38' E 023°50'516.0
2017-Oct-16 19:30N 37°39' E 023°44'815.5
2017-Oct-16 19:00N 37°46' E 023°39'815.4
2017-Oct-16 18:30N 37°53' E 023°36'4 7.4
2017-Oct-16 18:00N 37°57' E 023°36'1 1.1
2017-Oct-16 17:20N 37°58' E 023°36'0 0.0
2017-Oct-16 16:59N 37°58' E 023°36'0 0.0
2017-Oct-16 16:29N 37°58' E 023°36'0 0.0
2017-Oct-16 16:00N 37°58' E 023°36'0 0.0
2017-Oct-16 15:30N 37°58' E 023°36'0 0.0
2017-Oct-16 15:00N 37°58' E 023°36'0 0.0
2017-Oct-16 13:58N 37°58' E 023°36'0 0.0
2017-Oct-16 13:28N 37°58' E 023°36'0 0.0
2017-Oct-16 12:59N 37°58' E 023°36'0 0.0
2017-Oct-16 12:29N 37°58' E 023°36'0 0.0
2017-Oct-16 11:59N 37°58' E 023°36'0 0.0
2017-Oct-16 11:27N 37°58' E 023°36'0 0.0
2017-Oct-16 11:00N 37°58' E 023°36'1 1.9
2017-Oct-16 10:30N 37°57' E 023°36'3 5.5
2017-Oct-16 10:00N 37°54' E 023°37'3 7.0
2017-Oct-16 09:30N 37°51' E 023°39'714.1
2017-Oct-16 09:01N 37°45' E 023°42'815.4
2017-Oct-16 08:29N 37°37' E 023°44'1016.3
2017-Oct-16 07:53N 37°27' E 023°39'1716.1
2017-Oct-16 06:51N 37°12' E 023°31'616.4
2017-Oct-16 06:30N 37°07' E 023°29'  
2017-Oct-13 23:44N 44°08' E 013°60'619.6
2017-Oct-13 23:27N 44°12' E 013°56'919.5
2017-Oct-13 23:00N 44°20' E 013°49'1019.5
2017-Oct-13 22:30N 44°28' E 013°42'1019.4
2017-Oct-13 22:00N 44°36' E 013°34'1019.4
2017-Oct-13 21:30N 44°44' E 013°26'1019.4
2017-Oct-13 21:00N 44°52' E 013°19'1019.4
2017-Oct-13 20:31N 45°00' E 013°12'1019.6
2017-Oct-13 20:00N 45°09' E 013°06'1019.1
2017-Oct-13 19:30N 45°19' E 013°05'918.5
2017-Oct-13 19:01N 45°27' E 013°11'1019.5
2017-Oct-13 18:30N 45°33' E 013°22'1019.2
2017-Oct-13 18:00N 45°38' E 013°34'815.2
2017-Oct-13 17:30N 45°34' E 013°43'1 1.2
2017-Oct-13 16:50N 45°33' E 013°44'0 0.0
2017-Oct-13 16:29N 45°33' E 013°44'0 0.0
2017-Oct-13 15:59N 45°33' E 013°44'0 0.0
2017-Oct-13 15:30N 45°33' E 013°44'0 0.0
2017-Oct-13 15:00N 45°33' E 013°44'0 0.0
2017-Oct-13 14:27N 45°33' E 013°44'0 0.0
2017-Oct-13 14:01N 45°33' E 013°44'0 0.0
2017-Oct-13 13:28N 45°33' E 013°44'0 0.0
2017-Oct-13 12:58N 45°33' E 013°44'0 0.0
2017-Oct-13 12:23N 45°33' E 013°44'0 0.0
2017-Oct-13 11:59N 45°33' E 013°44'0 0.0
2017-Oct-13 11:29N 45°33' E 013°44'0 0.0
2017-Oct-13 11:00N 45°33' E 013°44'0 0.0
2017-Oct-13 10:27N 45°33' E 013°44'0 0.0
2017-Oct-13 10:00N 45°33' E 013°44'0 0.0
2017-Oct-13 09:31N 45°33' E 013°44'0 0.0
2017-Oct-13 08:40N 45°33' E 013°44'0 0.0
2017-Oct-13 08:28N 45°33' E 013°44'0 0.0
2017-Oct-13 07:56N 45°33' E 013°44'0 0.0
2017-Oct-13 07:23N 45°33' E 013°44'0 0.0
2017-Oct-13 06:59N 45°33' E 013°44'0 0.0
2017-Oct-13 06:24N 45°33' E 013°44'0 0.0
2017-Oct-13 06:00N 45°33' E 013°44'0 0.0
2017-Oct-13 05:24N 45°33' E 013°44'0 0.0
2017-Oct-13 04:55N 45°33' E 013°44'0 0.0
2017-Oct-13 04:25N 45°33' E 013°44'0 0.0
2017-Oct-13 03:58N 45°33' E 013°44'0 0.0
2017-Oct-13 03:26N 45°33' E 013°44'0 0.0
2017-Oct-13 02:59N 45°33' E 013°44'0 0.0
2017-Oct-13 02:26N 45°33' E 013°44'0 0.0
2017-Oct-13 02:00N 45°33' E 013°44'0 0.0
2017-Oct-13 01:30N 45°33' E 013°44'0 0.0
2017-Oct-13 01:00N 45°33' E 013°44'0 0.0
2017-Oct-13 00:28N 45°33' E 013°44'0 0.0
2017-Oct-12 23:55N 45°33' E 013°44'0 0.0
2017-Oct-12 23:28N 45°33' E 013°44'0 0.0
2017-Oct-12 22:59N 45°33' E 013°44'0 0.0
2017-Oct-12 22:26N 45°33' E 013°44'0 0.0
2017-Oct-12 21:59N 45°33' E 013°44'0 0.0
2017-Oct-12 21:27N 45°33' E 013°44'0 0.0
2017-Oct-12 20:57N 45°33' E 013°44'0 0.0
2017-Oct-12 20:24N 45°33' E 013°44'0 0.0
2017-Oct-12 19:58N 45°33' E 013°44'0 0.0
2017-Oct-12 19:28N 45°33' E 013°44'0 0.0
2017-Oct-12 19:00N 45°33' E 013°44'1 2.7
2017-Oct-12 18:30N 45°34' E 013°42'713.6
2017-Oct-12 18:00N 45°35' E 013°33'815.6
2017-Oct-12 17:30N 45°31' E 013°23'815.6
2017-Oct-12 17:00N 45°25' E 013°15'713.7
2017-Oct-12 16:30N 45°19' E 013°12'815.5
2017-Oct-12 16:00N 45°11' E 013°15'815.4
2017-Oct-12 15:30N 45°04' E 013°18'815.4
2017-Oct-12 15:00N 44°57' E 013°23'815.5
2017-Oct-12 14:30N 44°50' E 013°29'815.3
2017-Oct-12 14:00N 44°44' E 013°34'815.5
2017-Oct-12 13:30N 44°37' E 013°40'815.5
2017-Oct-12 13:00N 44°31' E 013°46'815.5
2017-Oct-12 12:30N 44°24' E 013°52'815.3
2017-Oct-12 12:00N 44°18' E 013°58'61514.3
2017-Oct-10 16:58N 36°57' E 023°24'816.1
2017-Oct-10 16:28N 37°05' E 023°27'2116.0
2017-Oct-10 15:09N 37°24' E 023°37'216.2
2017-Oct-10 15:00N 37°27' E 023°38'1615.7
2017-Oct-10 13:59N 37°43' E 023°40'816.1
2017-Oct-10 13:31N 37°50' E 023°36'714.1
2017-Oct-10 13:00N 37°57' E 023°36'1 1.9
2017-Oct-10 12:30N 37°58' E 023°36'0 0.0
2017-Oct-10 11:56N 37°58' E 023°36'0 0.0
2017-Oct-10 11:29N 37°58' E 023°36'0 0.0
2017-Oct-10 10:59N 37°58' E 023°36'0 0.0
2017-Oct-10 10:30N 37°58' E 023°36'0 0.0
2017-Oct-10 10:00N 37°58' E 023°36'0 0.0
2017-Oct-10 09:30N 37°58' E 023°36'0 0.0
2017-Oct-10 08:58N 37°58' E 023°36'0 0.0
2017-Oct-10 08:28N 37°58' E 023°36'0 0.0
2017-Oct-10 07:55N 37°58' E 023°36'0 0.0
2017-Oct-10 07:29N 37°58' E 023°36'0 0.0
2017-Oct-10 06:59N 37°58' E 023°36'0 0.0
2017-Oct-10 06:29N 37°58' E 023°36'0 0.0
2017-Oct-10 06:00N 37°58' E 023°36'0 0.0
2017-Oct-10 05:30N 37°58' E 023°36'0 0.0
2017-Oct-10 05:00N 37°58' E 023°36'0 0.0
2017-Oct-10 04:30N 37°58' E 023°36'3 5.3
2017-Oct-10 04:00N 37°55' E 023°35'1 1.5
2017-Oct-10 03:30N 37°54' E 023°36'1 2.9
2017-Oct-10 03:00N 37°53' E 023°36'3 7.0
2017-Oct-10 02:30N 37°50' E 023°39'510.1
2017-Oct-10 02:00N 37°46' E 023°42'510.9
2017-Oct-10 01:30N 37°41' E 023°45'610.9
2017-Oct-10 01:00N 37°39' E 023°51'  
Track history (hours):
 
Tides and Currents Weather Stations Pressure Air Temp Water Temp Dewpoint Dewpoint Depression Visibility Wind Speed Wind Dir Waves Ship Positions

Neptune Thelisis

Last reported at 2017-Oct-19 08:08 UTC. Time now 2017-Oct-19 09:30 UTC.
Position N 46°17' E 030°45'.

; draft 5.6 m.

Type: Ship. MMSI: 256049000.

Date/timePositionNaut miles runAvg speedWind from/ knotsBaromVisibWave heightAir tempDewpointWater temp
2017-Oct-19 08:08N 46°17' E 030°45'0 0.1
2017-Oct-19 07:53N 46°17' E 030°45'0 0.1
2017-Oct-19 07:30N 46°17' E 030°45'0 0.1
2017-Oct-19 06:57N 46°17' E 030°45'0 0.0
2017-Oct-19 06:24N 46°17' E 030°45'0 0.1
2017-Oct-19 05:58N 46°17' E 030°45'0 0.1
2017-Oct-19 05:30N 46°17' E 030°45'0 0.1
2017-Oct-19 05:00N 46°17' E 030°45'0 0.1
2017-Oct-19 04:30N 46°17' E 030°45'0 0.0
2017-Oct-19 03:59N 46°17' E 030°45'0 0.0
2017-Oct-19 03:30N 46°17' E 030°45'0 0.0
2017-Oct-19 02:59N 46°17' E 030°45'0 0.0
2017-Oct-19 02:30N 46°17' E 030°45'0 0.0
2017-Oct-19 02:00N 46°17' E 030°45'0 0.0
2017-Oct-19 01:27N 46°17' E 030°45'0 0.0
2017-Oct-19 01:00N 46°17' E 030°45'0 0.0
2017-Oct-19 00:30N 46°17' E 030°45'0 0.0
2017-Oct-19 00:00N 46°17' E 030°45'0 0.0
2017-Oct-18 23:30N 46°17' E 030°45'0 0.0
2017-Oct-18 23:00N 46°17' E 030°45'0 0.0
2017-Oct-18 22:13N 46°17' E 030°45'0 0.3
2017-Oct-18 21:43N 46°16' E 030°45'1912.3
2017-Oct-18 20:10N 46°04' E 031°06'315.7
2017-Oct-18 20:00N 46°02' E 031°05'815.8
2017-Oct-18 19:30N 45°54' E 031°02'815.8
2017-Oct-18 19:00N 45°47' E 030°59'12516.0
2017-Oct-18 11:13N 43°47' E 030°10'316.1
2017-Oct-18 11:00N 43°44' E 030°08'816.2
2017-Oct-18 10:30N 43°36' E 030°06'1115.9
2017-Oct-18 09:49N 43°25' E 030°02'4715.9
2017-Oct-18 06:52N 42°40' E 029°44'615.9
2017-Oct-18 06:30N 42°34' E 029°42'10614.7
2017-Oct-17 23:20N 40°55' E 028°56'619.0
2017-Oct-17 23:00N 40°51' E 028°49'30211.1
2017-Oct-16 19:47N 37°38' E 023°50'516.0
2017-Oct-16 19:30N 37°39' E 023°44'815.5
2017-Oct-16 19:00N 37°46' E 023°39'815.4
2017-Oct-16 18:30N 37°53' E 023°36'4 7.4
2017-Oct-16 18:00N 37°57' E 023°36'1 1.1
2017-Oct-16 17:20N 37°58' E 023°36'0 0.0
2017-Oct-16 16:59N 37°58' E 023°36'0 0.0
2017-Oct-16 16:29N 37°58' E 023°36'0 0.0
2017-Oct-16 16:00N 37°58' E 023°36'0 0.0
2017-Oct-16 15:30N 37°58' E 023°36'0 0.0
2017-Oct-16 15:00N 37°58' E 023°36'0 0.0
2017-Oct-16 13:58N 37°58' E 023°36'0 0.0
2017-Oct-16 13:28N 37°58' E 023°36'0 0.0
2017-Oct-16 12:59N 37°58' E 023°36'0 0.0
2017-Oct-16 12:29N 37°58' E 023°36'0 0.0
2017-Oct-16 11:59N 37°58' E 023°36'0 0.0
2017-Oct-16 11:27N 37°58' E 023°36'0 0.0
2017-Oct-16 11:00N 37°58' E 023°36'1 1.9
2017-Oct-16 10:30N 37°57' E 023°36'3 5.5
2017-Oct-16 10:00N 37°54' E 023°37'3 7.0
2017-Oct-16 09:30N 37°51' E 023°39'714.1
2017-Oct-16 09:01N 37°45' E 023°42'815.4
2017-Oct-16 08:29N 37°37' E 023°44'1016.3
2017-Oct-16 07:53N 37°27' E 023°39'1716.1
2017-Oct-16 06:51N 37°12' E 023°31'616.4
2017-Oct-16 06:30N 37°07' E 023°29'  
2017-Oct-13 23:44N 44°08' E 013°60'619.6
2017-Oct-13 23:27N 44°12' E 013°56'919.5
2017-Oct-13 23:00N 44°20' E 013°49'1019.5
2017-Oct-13 22:30N 44°28' E 013°42'1019.4
2017-Oct-13 22:00N 44°36' E 013°34'1019.4
2017-Oct-13 21:30N 44°44' E 013°26'1019.4
2017-Oct-13 21:00N 44°52' E 013°19'1019.4
2017-Oct-13 20:31N 45°00' E 013°12'1019.6
2017-Oct-13 20:00N 45°09' E 013°06'1019.1
2017-Oct-13 19:30N 45°19' E 013°05'918.5
2017-Oct-13 19:01N 45°27' E 013°11'1019.5
2017-Oct-13 18:30N 45°33' E 013°22'1019.2
2017-Oct-13 18:00N 45°38' E 013°34'815.2
2017-Oct-13 17:30N 45°34' E 013°43'1 1.2
2017-Oct-13 16:50N 45°33' E 013°44'0 0.0
2017-Oct-13 16:29N 45°33' E 013°44'0 0.0
2017-Oct-13 15:59N 45°33' E 013°44'0 0.0
2017-Oct-13 15:30N 45°33' E 013°44'0 0.0
2017-Oct-13 15:00N 45°33' E 013°44'0 0.0
2017-Oct-13 14:27N 45°33' E 013°44'0 0.0
2017-Oct-13 14:01N 45°33' E 013°44'0 0.0
2017-Oct-13 13:28N 45°33' E 013°44'0 0.0
2017-Oct-13 12:58N 45°33' E 013°44'0 0.0
2017-Oct-13 12:23N 45°33' E 013°44'0 0.0
2017-Oct-13 11:59N 45°33' E 013°44'0 0.0
2017-Oct-13 11:29N 45°33' E 013°44'0 0.0
2017-Oct-13 11:00N 45°33' E 013°44'0 0.0
2017-Oct-13 10:27N 45°33' E 013°44'0 0.0
2017-Oct-13 10:00N 45°33' E 013°44'0 0.0
2017-Oct-13 09:31N 45°33' E 013°44'0 0.0
2017-Oct-13 08:40N 45°33' E 013°44'0 0.0
2017-Oct-13 08:28N 45°33' E 013°44'0 0.0
2017-Oct-13 07:56N 45°33' E 013°44'0 0.0
2017-Oct-13 07:23N 45°33' E 013°44'0 0.0
2017-Oct-13 06:59N 45°33' E 013°44'0 0.0
2017-Oct-13 06:24N 45°33' E 013°44'0 0.0
2017-Oct-13 06:00N 45°33' E 013°44'0 0.0
2017-Oct-13 05:24N 45°33' E 013°44'0 0.0
2017-Oct-13 04:55N 45°33' E 013°44'0 0.0
2017-Oct-13 04:25N 45°33' E 013°44'0 0.0
2017-Oct-13 03:58N 45°33' E 013°44'0 0.0
2017-Oct-13 03:26N 45°33' E 013°44'0 0.0
2017-Oct-13 02:59N 45°33' E 013°44'0 0.0
2017-Oct-13 02:26N 45°33' E 013°44'0 0.0
2017-Oct-13 02:00N 45°33' E 013°44'0 0.0
2017-Oct-13 01:30N 45°33' E 013°44'0 0.0
2017-Oct-13 01:00N 45°33' E 013°44'0 0.0
2017-Oct-13 00:28N 45°33' E 013°44'0 0.0
2017-Oct-12 23:55N 45°33' E 013°44'0 0.0
2017-Oct-12 23:28N 45°33' E 013°44'0 0.0
2017-Oct-12 22:59N 45°33' E 013°44'0 0.0
2017-Oct-12 22:26N 45°33' E 013°44'0 0.0
2017-Oct-12 21:59N 45°33' E 013°44'0 0.0
2017-Oct-12 21:27N 45°33' E 013°44'0 0.0
2017-Oct-12 20:57N 45°33' E 013°44'0 0.0
2017-Oct-12 20:24N 45°33' E 013°44'0 0.0
2017-Oct-12 19:58N 45°33' E 013°44'0 0.0
2017-Oct-12 19:28N 45°33' E 013°44'0 0.0
2017-Oct-12 19:00N 45°33' E 013°44'1 2.7
2017-Oct-12 18:30N 45°34' E 013°42'713.6
2017-Oct-12 18:00N 45°35' E 013°33'815.6
2017-Oct-12 17:30N 45°31' E 013°23'815.6
2017-Oct-12 17:00N 45°25' E 013°15'713.7
2017-Oct-12 16:30N 45°19' E 013°12'815.5
2017-Oct-12 16:00N 45°11' E 013°15'815.4
2017-Oct-12 15:30N 45°04' E 013°18'815.4
2017-Oct-12 15:00N 44°57' E 013°23'815.5
2017-Oct-12 14:30N 44°50' E 013°29'815.3
2017-Oct-12 14:00N 44°44' E 013°34'815.5
2017-Oct-12 13:30N 44°37' E 013°40'815.5
2017-Oct-12 13:00N 44°31' E 013°46'815.5
2017-Oct-12 12:30N 44°24' E 013°52'815.3
2017-Oct-12 12:00N 44°18' E 013°58'61514.3
2017-Oct-10 16:58N 36°57' E 023°24'816.1
2017-Oct-10 16:28N 37°05' E 023°27'2116.0
2017-Oct-10 15:09N 37°24' E 023°37'216.2
2017-Oct-10 15:00N 37°27' E 023°38'1615.7
2017-Oct-10 13:59N 37°43' E 023°40'816.1
2017-Oct-10 13:31N 37°50' E 023°36'714.1
2017-Oct-10 13:00N 37°57' E 023°36'1 1.9
2017-Oct-10 12:30N 37°58' E 023°36'0 0.0
2017-Oct-10 11:56N 37°58' E 023°36'0 0.0
2017-Oct-10 11:29N 37°58' E 023°36'0 0.0
2017-Oct-10 10:59N 37°58' E 023°36'0 0.0
2017-Oct-10 10:30N 37°58' E 023°36'0 0.0
2017-Oct-10 10:00N 37°58' E 023°36'0 0.0
2017-Oct-10 09:30N 37°58' E 023°36'0 0.0
2017-Oct-10 08:58N 37°58' E 023°36'0 0.0
2017-Oct-10 08:28N 37°58' E 023°36'0 0.0
2017-Oct-10 07:55N 37°58' E 023°36'0 0.0
2017-Oct-10 07:29N 37°58' E 023°36'0 0.0
2017-Oct-10 06:59N 37°58' E 023°36'0 0.0
2017-Oct-10 06:29N 37°58' E 023°36'0 0.0
2017-Oct-10 06:00N 37°58' E 023°36'0 0.0
2017-Oct-10 05:30N 37°58' E 023°36'0 0.0
2017-Oct-10 05:00N 37°58' E 023°36'0 0.0
2017-Oct-10 04:30N 37°58' E 023°36'3 5.3
2017-Oct-10 04:00N 37°55' E 023°35'1 1.5
2017-Oct-10 03:30N 37°54' E 023°36'1 2.9
2017-Oct-10 03:00N 37°53' E 023°36'3 7.0
2017-Oct-10 02:30N 37°50' E 023°39'510.1
2017-Oct-10 02:00N 37°46' E 023°42'510.9
2017-Oct-10 01:30N 37°41' E 023°45'610.9
2017-Oct-10 01:00N 37°39' E 023°51'  

Dump ship's entire track history